Pops — WDC8157 — position and weather

sailwx.info

Track history (hours):
 
Tides and Currents Weather Stations Pressure Air Temp Water Temp Dewpoint Dewpoint Depression Visibility Wind Speed Wind Dir Waves Ship Positions

Pops

Owner: GORE MARINE CORPORATION, MERIDIAN, GA. More information available from US FCC via Universal Licensing System and Coast Guard Vessel Documentation Center.

Last reported at 2017-Nov-18 16:57 UTC. Time now 2017-Nov-18 19:39 UTC.
Position N 38°57' W 074°52'.

Length 22 m; draft 3.5 m.

Type: Tug. MMSI: 367082540.

Date/timePositionNaut miles runAvg speedWind from/ knotsBaromVisibWave heightAir tempDewpointWater temp
2017-Nov-18 16:57N 38°57' W 074°52'0 0.0
2017-Nov-18 16:18N 38°57' W 074°52'0 0.0
2017-Nov-18 16:00N 38°57' W 074°52'0 0.0
2017-Nov-18 15:19N 38°57' W 074°52'0 0.0
2017-Nov-18 14:35N 38°57' W 074°52'0 0.3
2017-Nov-18 14:30N 38°57' W 074°52'0 0.0
2017-Nov-18 13:59N 38°57' W 074°52'0 0.1
2017-Nov-18 13:10N 38°57' W 074°52'1 0.6
2017-Nov-18 10:48N 38°57' W 074°54'1 3.5
2017-Nov-18 10:30N 38°57' W 074°53'2 2.9
2017-Nov-18 09:55N 38°56' W 074°51'0 0.7
2017-Nov-18 09:30N 38°57' W 074°51'0 0.4
2017-Nov-18 08:56N 38°57' W 074°50'0 0.4
2017-Nov-18 08:30N 38°57' W 074°50'0 0.3
2017-Nov-18 08:00N 38°57' W 074°50'0 0.0
2017-Nov-18 07:21N 38°57' W 074°50'1 1.6
2017-Nov-18 07:00N 38°57' W 074°51'0 0.3
2017-Nov-18 06:28N 38°57' W 074°51'1 2.3
2017-Nov-18 06:00N 38°56' W 074°51'1 2.3
2017-Nov-18 05:29N 38°54' W 074°51'3 6.1
2017-Nov-18 05:00N 38°52' W 074°54'6 6.1
2017-Nov-18 04:05N 38°49' W 074°60'25 0.6
2017-Nov-16 12:39N 38°24' W 075°03'0 0.2
2017-Nov-16 12:20N 38°24' W 075°03'24 0.5
2017-Nov-14 08:56N 38°48' W 075°06'0 0.0
2017-Nov-14 04:16N 38°48' W 075°06'0 0.0
2017-Nov-14 00:45N 38°48' W 075°06'0 0.0
2017-Nov-14 00:29N 38°48' W 075°06'21 0.8
2017-Nov-12 21:08N 38°27' W 075°02'2 0.5
2017-Nov-12 17:31N 38°25' W 075°03'23 1.9
2017-Nov-12 05:12N 38°48' W 075°07'1 0.0
2017-Nov-10 10:34N 38°48' W 075°06'0 0.0
2017-Nov-10 10:30N 38°48' W 075°06'0 0.0
2017-Nov-10 09:53N 38°48' W 075°06'0 0.0
2017-Nov-10 09:30N 38°48' W 075°06'0 0.0
2017-Nov-10 08:57N 38°48' W 075°06'0 0.0
2017-Nov-10 08:30N 38°48' W 075°06'0 0.0
2017-Nov-10 08:00N 38°48' W 075°06'0 0.0
2017-Nov-10 07:29N 38°48' W 075°06'0 0.0
2017-Nov-10 06:58N 38°48' W 075°06'0 0.0
2017-Nov-10 06:30N 38°48' W 075°06'0 0.0
2017-Nov-10 04:29N 38°48' W 075°06'0 0.0
2017-Nov-10 04:00N 38°48' W 075°06'0 0.0
2017-Nov-10 03:31N 38°48' W 075°06'3 2.2
2017-Nov-10 02:05N 38°48' W 075°10'0 0.1
2017-Nov-10 01:46N 38°48' W 075°10'  
Track history (hours):
 
Tides and Currents Weather Stations Pressure Air Temp Water Temp Dewpoint Dewpoint Depression Visibility Wind Speed Wind Dir Waves Ship Positions

Pops

Owner: GORE MARINE CORPORATION, MERIDIAN, GA. More information available from US FCC via Universal Licensing System and Coast Guard Vessel Documentation Center.

Last reported at 2017-Nov-18 16:57 UTC. Time now 2017-Nov-18 19:39 UTC.
Position N 38°57' W 074°52'.

Length 22 m; draft 3.5 m.

Type: Tug. MMSI: 367082540.

Date/timePositionNaut miles runAvg speedWind from/ knotsBaromVisibWave heightAir tempDewpointWater temp
2017-Nov-18 16:57N 38°57' W 074°52'0 0.0
2017-Nov-18 16:18N 38°57' W 074°52'0 0.0
2017-Nov-18 16:00N 38°57' W 074°52'0 0.0
2017-Nov-18 15:19N 38°57' W 074°52'0 0.0
2017-Nov-18 14:35N 38°57' W 074°52'0 0.3
2017-Nov-18 14:30N 38°57' W 074°52'0 0.0
2017-Nov-18 13:59N 38°57' W 074°52'0 0.1
2017-Nov-18 13:10N 38°57' W 074°52'1 0.6
2017-Nov-18 10:48N 38°57' W 074°54'1 3.5
2017-Nov-18 10:30N 38°57' W 074°53'2 2.9
2017-Nov-18 09:55N 38°56' W 074°51'0 0.7
2017-Nov-18 09:30N 38°57' W 074°51'0 0.4
2017-Nov-18 08:56N 38°57' W 074°50'0 0.4
2017-Nov-18 08:30N 38°57' W 074°50'0 0.3
2017-Nov-18 08:00N 38°57' W 074°50'0 0.0
2017-Nov-18 07:21N 38°57' W 074°50'1 1.6
2017-Nov-18 07:00N 38°57' W 074°51'0 0.3
2017-Nov-18 06:28N 38°57' W 074°51'1 2.3
2017-Nov-18 06:00N 38°56' W 074°51'1 2.3
2017-Nov-18 05:29N 38°54' W 074°51'3 6.1
2017-Nov-18 05:00N 38°52' W 074°54'6 6.1
2017-Nov-18 04:05N 38°49' W 074°60'25 0.6
2017-Nov-16 12:39N 38°24' W 075°03'0 0.2
2017-Nov-16 12:20N 38°24' W 075°03'24 0.5
2017-Nov-14 08:56N 38°48' W 075°06'0 0.0
2017-Nov-14 04:16N 38°48' W 075°06'0 0.0
2017-Nov-14 00:45N 38°48' W 075°06'0 0.0
2017-Nov-14 00:29N 38°48' W 075°06'21 0.8
2017-Nov-12 21:08N 38°27' W 075°02'2 0.5
2017-Nov-12 17:31N 38°25' W 075°03'23 1.9
2017-Nov-12 05:12N 38°48' W 075°07'1 0.0
2017-Nov-10 10:34N 38°48' W 075°06'0 0.0
2017-Nov-10 10:30N 38°48' W 075°06'0 0.0
2017-Nov-10 09:53N 38°48' W 075°06'0 0.0
2017-Nov-10 09:30N 38°48' W 075°06'0 0.0
2017-Nov-10 08:57N 38°48' W 075°06'0 0.0
2017-Nov-10 08:30N 38°48' W 075°06'0 0.0
2017-Nov-10 08:00N 38°48' W 075°06'0 0.0
2017-Nov-10 07:29N 38°48' W 075°06'0 0.0
2017-Nov-10 06:58N 38°48' W 075°06'0 0.0
2017-Nov-10 06:30N 38°48' W 075°06'0 0.0
2017-Nov-10 04:29N 38°48' W 075°06'0 0.0
2017-Nov-10 04:00N 38°48' W 075°06'0 0.0
2017-Nov-10 03:31N 38°48' W 075°06'3 2.2
2017-Nov-10 02:05N 38°48' W 075°10'0 0.1
2017-Nov-10 01:46N 38°48' W 075°10'  

Dump ship's entire track history